Nederlandse vliegveldverwachtingen (TAF)

Luchtvaartmeteorologische informatie voor operationeel gebruik en vluchtvoorbereiding is beschikbaar op www.luchtvaartmeteo.nl.

ZCZC
FC050500 EHKD RRB DE KOOY/DE KOOY   NLD   1 m.
TAF EHKD 050536Z 0506/0518 03007KT 9999 SCT030
    TEMPO 0510/0516 03009G20KT=

ZCZC
FC050500 EHGR RRA GILZE-RIJEN/GILZE-RIJEN   NLD   14 m.
TAF EHGR 050538Z 0506/0518 02006KT CAVOK
    TEMPO 0510/0516 04009G20KT=

ZCZC
FC050500 EHLW RRC LEEUWARDEN/LEEUWARDEN   NLD   1 m.
TAF EHLW 050536Z 0506/0518 03005KT 9999 FEW030
    TEMPO 0510/0516 04008G18KT=

ZCZC
FC050500 EHVK RRD VOLKEL/VOLKEL   NLD   21 m.
TAF EHVK 050555Z 0506/0518 02006KT CAVOK
    TEMPO 0510/0516 04008G18KT=

ZCZC
FC050500 EHWO RRE WOENSDRECHT/WOENSDRECHT   NLD   19 m.
TAF EHWO 050555Z 0506/0518 02006KT CAVOK
    TEMPO 0510/0516 04009G20KT=

ZCZC
FT050500 EHLE     LELYSTAD/LELYSTAD   NLD   -3 m.
TAF EHLE 050506Z 0506/0612 03007KT CAVOK
    PROB30 0602/0607 6000 MIFG=

ZCZC
FT050500 EHAM     AMSTERDAM/SCHIPHOL   NLD   -3 m.
TAF EHAM 050505Z 0506/0612 02007KT 9999 FEW040=

ZCZC
FT050500 EHRD     ROTTERDAM/THE HAGUE AIRPORT   NLD   -5 m.
TAF EHRD 050505Z 0506/0612 03007KT 9999 FEW040=

ZCZC
FT050500 EHGG     GRONINGEN/EELDE   NLD   5 m.
TAF EHGG 050458Z 0506/0612 01006KT CAVOK
    PROB30 0602/0608 4000 BR
    BECMG 0609/0612 BKN013
    PROB30 TEMPO 0609/0612 -SHRA BKN008 FEW010TCU=

ZCZC
FT050500 EHBK     MAASTRICHT/MAASTRICHT-AACHEN   NLD   114 m.
TAF EHBK 050504Z 0506/0612 35008KT CAVOK
    BECMG 0518/0521 07004KT=

ZCZC
FT050500 EHEH     EINDHOVEN/EINDHOVEN   NLD   22 m.
TAF EHEH 050539Z 0506/0612 02006KT CAVOK
    TEMPO 0510/0516 03008G18KT
    BECMG 0600/0603 VRB02KT
    BECMG 0608/0610 06006KT=

05/03/2021 07.15 uur LT